sensor_id;sensor_type;location;lat;lon;timestamp;P1;durP1;ratioP1;P2;durP2;ratioP2
37349;SDS011;23231;52.358;4.926;2023-02-13T00:02:30;35.03;;;18.27;;
37349;SDS011;23231;52.358;4.926;2023-02-13T00:07:30;37.38;;;18.63;;
37349;SDS011;23231;52.358;4.926;2023-02-13T00:12:31;36.70;;;18.33;;
37349;SDS011;23231;52.358;4.926;2023-02-13T00:17:31;39.72;;;19.02;;
37349;SDS011;23231;52.358;4.926;2023-02-13T00:22:35;36.50;;;18.85;;
37349;SDS011;23231;52.358;4.926;2023-02-13T00:27:36;36.83;;;18.50;;
37349;SDS011;23231;52.358;4.926;2023-02-13T00:32:36;37.22;;;18.27;;
37349;SDS011;23231;52.358;4.926;2023-02-13T00:37:37;37.72;;;18.67;;
37349;SDS011;23231;52.358;4.926;2023-02-13T00:42:37;39.63;;;20.92;;
37349;SDS011;23231;52.358;4.926;2023-02-13T00:47:37;40.97;;;19.77;;
37349;SDS011;23231;52.358;4.926;2023-02-13T00:52:38;40.63;;;20.00;;
37349;SDS011;23231;52.358;4.926;2023-02-13T00:57:38;40.53;;;20.42;;
37349;SDS011;23231;52.358;4.926;2023-02-13T01:02:39;38.72;;;19.50;;
37349;SDS011;23231;52.358;4.926;2023-02-13T01:07:39;42.50;;;19.92;;
37349;SDS011;23231;52.358;4.926;2023-02-13T01:12:39;37.97;;;19.17;;
37349;SDS011;23231;52.358;4.926;2023-02-13T01:17:40;43.53;;;20.75;;
37349;SDS011;23231;52.358;4.926;2023-02-13T01:22:40;42.40;;;20.83;;
37349;SDS011;23231;52.358;4.926;2023-02-13T01:27:43;40.40;;;18.88;;
37349;SDS011;23231;52.358;4.926;2023-02-13T01:32:45;42.30;;;19.33;;
37349;SDS011;23231;52.358;4.926;2023-02-13T01:37:46;41.50;;;19.73;;
37349;SDS011;23231;52.358;4.926;2023-02-13T01:42:47;42.47;;;20.67;;
37349;SDS011;23231;52.358;4.926;2023-02-13T01:47:48;40.50;;;20.42;;
37349;SDS011;23231;52.358;4.926;2023-02-13T01:52:54;44.20;;;20.30;;
37349;SDS011;23231;52.358;4.926;2023-02-13T01:58:00;49.03;;;22.10;;
37349;SDS011;23231;52.358;4.926;2023-02-13T02:03:04;43.63;;;22.02;;
37349;SDS011;23231;52.358;4.926;2023-02-13T02:08:11;47.58;;;21.77;;
37349;SDS011;23231;52.358;4.926;2023-02-13T02:13:14;44.90;;;20.58;;
37349;SDS011;23231;52.358;4.926;2023-02-13T02:18:20;41.75;;;20.08;;
37349;SDS011;23231;52.358;4.926;2023-02-13T02:34:08;50.80;;;23.38;;
37349;SDS011;23231;52.358;4.926;2023-02-13T02:39:20;50.42;;;22.90;;
37349;SDS011;23231;52.358;4.926;2023-02-13T02:49:57;49.65;;;22.13;;
37349;SDS011;23231;52.358;4.926;2023-02-13T02:55:11;47.85;;;22.58;;
37349;SDS011;23231;52.358;4.926;2023-02-13T03:00:21;46.65;;;21.25;;
37349;SDS011;23231;52.358;4.926;2023-02-13T03:05:43;52.22;;;23.42;;
37349;SDS011;23231;52.358;4.926;2023-02-13T03:11:04;51.95;;;23.80;;
37349;SDS011;23231;52.358;4.926;2023-02-13T03:16:24;49.58;;;21.88;;
37349;SDS011;23231;52.358;4.926;2023-02-13T03:27:07;52.42;;;22.88;;
37349;SDS011;23231;52.358;4.926;2023-02-13T03:37:35;48.95;;;22.85;;
37349;SDS011;23231;52.358;4.926;2023-02-13T03:48:13;51.75;;;22.73;;
37349;SDS011;23231;52.358;4.926;2023-02-13T03:53:34;52.65;;;22.52;;
37349;SDS011;23231;52.358;4.926;2023-02-13T03:58:40;52.55;;;24.33;;
37349;SDS011;23231;52.358;4.926;2023-02-13T04:09:09;51.90;;;22.63;;
37349;SDS011;23231;52.358;4.926;2023-02-13T04:14:12;50.58;;;22.30;;
37349;SDS011;23231;52.358;4.926;2023-02-13T04:19:24;49.17;;;22.95;;
37349;SDS011;23231;52.358;4.926;2023-02-13T04:24:25;46.55;;;20.40;;
37349;SDS011;23231;52.358;4.926;2023-02-13T04:29:26;51.78;;;22.55;;
37349;SDS011;23231;52.358;4.926;2023-02-13T04:34:26;54.08;;;21.90;;
37349;SDS011;23231;52.358;4.926;2023-02-13T04:39:27;49.38;;;22.08;;
37349;SDS011;23231;52.358;4.926;2023-02-13T04:44:27;47.75;;;21.63;;
37349;SDS011;23231;52.358;4.926;2023-02-13T04:49:28;49.55;;;21.75;;
37349;SDS011;23231;52.358;4.926;2023-02-13T04:54:28;47.03;;;20.50;;
37349;SDS011;23231;52.358;4.926;2023-02-13T04:59:28;48.17;;;21.65;;
37349;SDS011;23231;52.358;4.926;2023-02-13T05:04:29;48.53;;;21.88;;
37349;SDS011;23231;52.358;4.926;2023-02-13T05:09:29;46.25;;;21.00;;
37349;SDS011;23231;52.358;4.926;2023-02-13T05:14:30;49.20;;;20.90;;
37349;SDS011;23231;52.358;4.926;2023-02-13T05:19:30;47.47;;;20.60;;
37349;SDS011;23231;52.358;4.926;2023-02-13T05:24:30;44.63;;;19.90;;
37349;SDS011;23231;52.358;4.926;2023-02-13T05:29:31;48.25;;;20.63;;
37349;SDS011;23231;52.358;4.926;2023-02-13T05:34:31;48.25;;;20.58;;
37349;SDS011;23231;52.358;4.926;2023-02-13T05:39:32;47.10;;;20.95;;
37349;SDS011;23231;52.358;4.926;2023-02-13T05:44:32;47.15;;;19.15;;
37349;SDS011;23231;52.358;4.926;2023-02-13T05:49:32;43.65;;;18.45;;
37349;SDS011;23231;52.358;4.926;2023-02-13T05:54:33;39.78;;;17.88;;
37349;SDS011;23231;52.358;4.926;2023-02-13T05:59:33;40.47;;;17.67;;
37349;SDS011;23231;52.358;4.926;2023-02-13T06:04:33;37.88;;;15.90;;
37349;SDS011;23231;52.358;4.926;2023-02-13T06:09:34;38.85;;;15.63;;
37349;SDS011;23231;52.358;4.926;2023-02-13T06:14:34;38.95;;;16.27;;
37349;SDS011;23231;52.358;4.926;2023-02-13T06:19:35;37.30;;;15.52;;
37349;SDS011;23231;52.358;4.926;2023-02-13T06:24:35;33.53;;;15.55;;
37349;SDS011;23231;52.358;4.926;2023-02-13T06:29:35;34.47;;;15.95;;
37349;SDS011;23231;52.358;4.926;2023-02-13T06:34:36;35.25;;;15.50;;
37349;SDS011;23231;52.358;4.926;2023-02-13T06:39:36;35.38;;;15.60;;
37349;SDS011;23231;52.358;4.926;2023-02-13T06:44:37;37.38;;;15.70;;
37349;SDS011;23231;52.358;4.926;2023-02-13T06:49:37;37.78;;;15.63;;
37349;SDS011;23231;52.358;4.926;2023-02-13T06:54:37;34.35;;;15.40;;
37349;SDS011;23231;52.358;4.926;2023-02-13T06:59:38;35.70;;;15.68;;
37349;SDS011;23231;52.358;4.926;2023-02-13T07:04:38;41.17;;;16.17;;
37349;SDS011;23231;52.358;4.926;2023-02-13T07:09:39;37.75;;;16.02;;
37349;SDS011;23231;52.358;4.926;2023-02-13T07:14:40;37.25;;;16.23;;
37349;SDS011;23231;52.358;4.926;2023-02-13T07:19:40;33.65;;;14.60;;
37349;SDS011;23231;52.358;4.926;2023-02-13T07:24:40;38.28;;;16.45;;
37349;SDS011;23231;52.358;4.926;2023-02-13T07:29:41;34.58;;;15.60;;
37349;SDS011;23231;52.358;4.926;2023-02-13T07:34:41;36.92;;;16.05;;
37349;SDS011;23231;52.358;4.926;2023-02-13T07:39:42;37.53;;;14.85;;
37349;SDS011;23231;52.358;4.926;2023-02-13T07:44:42;37.88;;;17.05;;
37349;SDS011;23231;52.358;4.926;2023-02-13T07:49:42;38.00;;;17.52;;
37349;SDS011;23231;52.358;4.926;2023-02-13T07:54:43;37.85;;;16.92;;
37349;SDS011;23231;52.358;4.926;2023-02-13T07:59:46;38.63;;;17.80;;
37349;SDS011;23231;52.358;4.926;2023-02-13T08:04:47;37.72;;;16.52;;
37349;SDS011;23231;52.358;4.926;2023-02-13T08:09:47;39.00;;;17.30;;
37349;SDS011;23231;52.358;4.926;2023-02-13T08:15:08;36.53;;;16.13;;
37349;SDS011;23231;52.358;4.926;2023-02-13T08:20:10;35.53;;;15.75;;
37349;SDS011;23231;52.358;4.926;2023-02-13T08:25:11;35.83;;;15.57;;
37349;SDS011;23231;52.358;4.926;2023-02-13T08:30:12;34.33;;;15.80;;
37349;SDS011;23231;52.358;4.926;2023-02-13T08:35:14;33.83;;;15.40;;
37349;SDS011;23231;52.358;4.926;2023-02-13T08:40:14;38.95;;;17.38;;
37349;SDS011;23231;52.358;4.926;2023-02-13T08:45:15;38.20;;;17.08;;
37349;SDS011;23231;52.358;4.926;2023-02-13T08:50:15;36.55;;;16.73;;
37349;SDS011;23231;52.358;4.926;2023-02-13T08:55:16;39.78;;;17.75;;
37349;SDS011;23231;52.358;4.926;2023-02-13T09:00:16;38.63;;;17.27;;
37349;SDS011;23231;52.358;4.926;2023-02-13T09:05:17;38.05;;;17.88;;
37349;SDS011;23231;52.358;4.926;2023-02-13T09:10:18;36.58;;;16.33;;
37349;SDS011;23231;52.358;4.926;2023-02-13T09:15:18;36.60;;;16.98;;
37349;SDS011;23231;52.358;4.926;2023-02-13T09:20:19;35.22;;;16.98;;
37349;SDS011;23231;52.358;4.926;2023-02-13T09:25:19;35.30;;;16.65;;
37349;SDS011;23231;52.358;4.926;2023-02-13T09:30:20;37.13;;;17.00;;
37349;SDS011;23231;52.358;4.926;2023-02-13T09:35:24;39.28;;;17.23;;
37349;SDS011;23231;52.358;4.926;2023-02-13T09:40:26;37.47;;;17.65;;
37349;SDS011;23231;52.358;4.926;2023-02-13T09:45:28;34.30;;;17.92;;
37349;SDS011;23231;52.358;4.926;2023-02-13T09:50:30;34.47;;;17.02;;
37349;SDS011;23231;52.358;4.926;2023-02-13T09:56:15;35.70;;;17.58;;
37349;SDS011;23231;52.358;4.926;2023-02-13T10:00:59;33.55;;;17.15;;
37349;SDS011;23231;52.358;4.926;2023-02-13T10:06:09;33.30;;;16.23;;
37349;SDS011;23231;52.358;4.926;2023-02-13T10:11:20;37.08;;;16.90;;
37349;SDS011;23231;52.358;4.926;2023-02-13T10:16:37;33.88;;;17.02;;
37349;SDS011;23231;52.358;4.926;2023-02-13T10:22:15;33.47;;;16.95;;
37349;SDS011;23231;52.358;4.926;2023-02-13T10:27:24;34.17;;;17.55;;
37349;SDS011;23231;52.358;4.926;2023-02-13T10:32:28;35.92;;;18.00;;
37349;SDS011;23231;52.358;4.926;2023-02-13T10:37:51;34.72;;;16.55;;
37349;SDS011;23231;52.358;4.926;2023-02-13T10:42:56;38.00;;;16.92;;
37349;SDS011;23231;52.358;4.926;2023-02-13T11:04:27;31.98;;;17.75;;
37349;SDS011;23231;52.358;4.926;2023-02-13T11:09:29;30.52;;;16.83;;
37349;SDS011;23231;52.358;4.926;2023-02-13T11:14:37;30.65;;;17.85;;
37349;SDS011;23231;52.358;4.926;2023-02-13T11:19:50;31.70;;;17.55;;
37349;SDS011;23231;52.358;4.926;2023-02-13T11:24:54;33.72;;;18.25;;
37349;SDS011;23231;52.358;4.926;2023-02-13T11:29:56;33.08;;;18.05;;
37349;SDS011;23231;52.358;4.926;2023-02-13T11:35:24;31.67;;;17.38;;
37349;SDS011;23231;52.358;4.926;2023-02-13T11:40:29;27.58;;;16.30;;
37349;SDS011;23231;52.358;4.926;2023-02-13T11:45:31;29.80;;;16.73;;
37349;SDS011;23231;52.358;4.926;2023-02-13T11:50:32;31.55;;;17.15;;
37349;SDS011;23231;52.358;4.926;2023-02-13T11:55:34;26.58;;;15.45;;
37349;SDS011;23231;52.358;4.926;2023-02-13T12:00:39;28.08;;;15.38;;
37349;SDS011;23231;52.358;4.926;2023-02-13T12:05:40;30.73;;;15.50;;
37349;SDS011;23231;52.358;4.926;2023-02-13T12:10:41;27.33;;;16.08;;
37349;SDS011;23231;52.358;4.926;2023-02-13T12:15:42;24.33;;;14.25;;
37349;SDS011;23231;52.358;4.926;2023-02-13T12:25:48;26.70;;;15.07;;
37349;SDS011;23231;52.358;4.926;2023-02-13T12:31:22;24.58;;;14.13;;
37349;SDS011;23231;52.358;4.926;2023-02-13T12:36:44;22.08;;;12.30;;
37349;SDS011;23231;52.358;4.926;2023-02-13T12:47:21;18.33;;;10.95;;
37349;SDS011;23231;52.358;4.926;2023-02-13T13:18:59;22.25;;;12.95;;
37349;SDS011;23231;52.358;4.926;2023-02-13T13:29:23;21.73;;;12.38;;
37349;SDS011;23231;52.358;4.926;2023-02-13T13:34:26;21.40;;;12.97;;
37349;SDS011;23231;52.358;4.926;2023-02-13T13:44:41;22.33;;;13.60;;
37349;SDS011;23231;52.358;4.926;2023-02-13T13:49:45;21.45;;;13.10;;
37349;SDS011;23231;52.358;4.926;2023-02-13T13:54:50;24.02;;;13.45;;
37349;SDS011;23231;52.358;4.926;2023-02-13T13:59:55;23.70;;;14.20;;
37349;SDS011;23231;52.358;4.926;2023-02-13T14:05:18;21.08;;;13.27;;
37349;SDS011;23231;52.358;4.926;2023-02-13T14:20:41;19.15;;;12.73;;
37349;SDS011;23231;52.358;4.926;2023-02-13T14:36:33;20.83;;;12.45;;
37349;SDS011;23231;52.358;4.926;2023-02-13T14:41:55;22.02;;;14.27;;
37349;SDS011;23231;52.358;4.926;2023-02-13T14:46:59;20.88;;;13.68;;
37349;SDS011;23231;52.358;4.926;2023-02-13T14:52:06;21.70;;;14.25;;
37349;SDS011;23231;52.358;4.926;2023-02-13T14:57:14;20.50;;;12.85;;
37349;SDS011;23231;52.358;4.926;2023-02-13T15:07:22;23.65;;;13.45;;
37349;SDS011;23231;52.358;4.926;2023-02-13T15:12:30;24.77;;;15.05;;
37349;SDS011;23231;52.358;4.926;2023-02-13T15:17:34;23.58;;;15.07;;
37349;SDS011;23231;52.358;4.926;2023-02-13T15:22:39;24.42;;;15.35;;
37349;SDS011;23231;52.358;4.926;2023-02-13T15:27:44;23.27;;;14.05;;
37349;SDS011;23231;52.358;4.926;2023-02-13T15:32:45;25.58;;;14.68;;
37349;SDS011;23231;52.358;4.926;2023-02-13T15:37:53;24.52;;;14.40;;
37349;SDS011;23231;52.358;4.926;2023-02-13T15:42:54;24.42;;;14.05;;
37349;SDS011;23231;52.358;4.926;2023-02-13T15:47:55;26.45;;;16.30;;
37349;SDS011;23231;52.358;4.926;2023-02-13T15:52:57;26.75;;;15.13;;
37349;SDS011;23231;52.358;4.926;2023-02-13T15:57:58;23.95;;;14.77;;
37349;SDS011;23231;52.358;4.926;2023-02-13T16:03:00;25.02;;;14.15;;
37349;SDS011;23231;52.358;4.926;2023-02-13T16:08:01;26.02;;;15.15;;
37349;SDS011;23231;52.358;4.926;2023-02-13T16:13:06;26.83;;;15.07;;
37349;SDS011;23231;52.358;4.926;2023-02-13T16:18:18;26.25;;;15.88;;
37349;SDS011;23231;52.358;4.926;2023-02-13T16:23:19;25.52;;;14.82;;
37349;SDS011;23231;52.358;4.926;2023-02-13T16:28:24;25.83;;;15.27;;
37349;SDS011;23231;52.358;4.926;2023-02-13T16:33:27;26.15;;;15.57;;
37349;SDS011;23231;52.358;4.926;2023-02-13T16:43:43;27.80;;;15.13;;
37349;SDS011;23231;52.358;4.926;2023-02-13T16:59:23;30.05;;;15.32;;
37349;SDS011;23231;52.358;4.926;2023-02-13T17:04:27;28.98;;;14.98;;
37349;SDS011;23231;52.358;4.926;2023-02-13T17:09:27;30.50;;;16.27;;
37349;SDS011;23231;52.358;4.926;2023-02-13T17:14:27;28.65;;;16.02;;
37349;SDS011;23231;52.358;4.926;2023-02-13T17:19:28;34.80;;;17.17;;
37349;SDS011;23231;52.358;4.926;2023-02-13T17:24:28;30.83;;;15.63;;
37349;SDS011;23231;52.358;4.926;2023-02-13T17:29:29;31.95;;;16.20;;
37349;SDS011;23231;52.358;4.926;2023-02-13T17:34:29;31.92;;;16.55;;
37349;SDS011;23231;52.358;4.926;2023-02-13T17:39:30;29.10;;;15.55;;
37349;SDS011;23231;52.358;4.926;2023-02-13T17:44:30;32.83;;;16.80;;
37349;SDS011;23231;52.358;4.926;2023-02-13T17:49:30;33.13;;;17.17;;
37349;SDS011;23231;52.358;4.926;2023-02-13T17:54:31;32.22;;;16.05;;
37349;SDS011;23231;52.358;4.926;2023-02-13T17:59:35;32.92;;;17.25;;
37349;SDS011;23231;52.358;4.926;2023-02-13T18:04:35;29.77;;;16.15;;
37349;SDS011;23231;52.358;4.926;2023-02-13T18:09:35;28.67;;;15.18;;
37349;SDS011;23231;52.358;4.926;2023-02-13T18:14:36;28.58;;;15.02;;
37349;SDS011;23231;52.358;4.926;2023-02-13T18:19:36;31.10;;;16.10;;
37349;SDS011;23231;52.358;4.926;2023-02-13T18:24:38;30.23;;;16.13;;
37349;SDS011;23231;52.358;4.926;2023-02-13T18:29:40;35.22;;;19.25;;
37349;SDS011;23231;52.358;4.926;2023-02-13T18:34:40;32.47;;;16.92;;
37349;SDS011;23231;52.358;4.926;2023-02-13T18:39:41;33.88;;;18.00;;
37349;SDS011;23231;52.358;4.926;2023-02-13T18:44:41;35.83;;;17.15;;
37349;SDS011;23231;52.358;4.926;2023-02-13T18:49:42;32.35;;;17.30;;
37349;SDS011;23231;52.358;4.926;2023-02-13T18:54:44;33.88;;;16.80;;
37349;SDS011;23231;52.358;4.926;2023-02-13T18:59:44;37.13;;;18.23;;
37349;SDS011;23231;52.358;4.926;2023-02-13T19:04:45;33.92;;;16.95;;
37349;SDS011;23231;52.358;4.926;2023-02-13T19:09:45;37.15;;;17.88;;
37349;SDS011;23231;52.358;4.926;2023-02-13T19:14:45;35.30;;;17.67;;
37349;SDS011;23231;52.358;4.926;2023-02-13T19:19:47;35.40;;;17.90;;
37349;SDS011;23231;52.358;4.926;2023-02-13T19:24:47;33.28;;;18.05;;
37349;SDS011;23231;52.358;4.926;2023-02-13T19:29:48;37.03;;;19.23;;
37349;SDS011;23231;52.358;4.926;2023-02-13T19:34:48;36.10;;;18.10;;
37349;SDS011;23231;52.358;4.926;2023-02-13T19:39:49;37.35;;;18.42;;
37349;SDS011;23231;52.358;4.926;2023-02-13T19:44:50;37.78;;;19.65;;
37349;SDS011;23231;52.358;4.926;2023-02-13T19:49:50;33.63;;;18.23;;
37349;SDS011;23231;52.358;4.926;2023-02-13T19:54:51;39.63;;;19.75;;
37349;SDS011;23231;52.358;4.926;2023-02-13T19:59:53;37.85;;;19.98;;
37349;SDS011;23231;52.358;4.926;2023-02-13T20:04:53;38.83;;;18.80;;
37349;SDS011;23231;52.358;4.926;2023-02-13T20:09:53;35.97;;;19.13;;
37349;SDS011;23231;52.358;4.926;2023-02-13T20:14:54;38.97;;;21.33;;
37349;SDS011;23231;52.358;4.926;2023-02-13T20:19:54;40.28;;;19.48;;
37349;SDS011;23231;52.358;4.926;2023-02-13T20:24:55;36.55;;;20.10;;
37349;SDS011;23231;52.358;4.926;2023-02-13T20:29:55;40.38;;;20.08;;
37349;SDS011;23231;52.358;4.926;2023-02-13T20:34:56;34.75;;;17.90;;
37349;SDS011;23231;52.358;4.926;2023-02-13T20:39:56;37.50;;;19.92;;
37349;SDS011;23231;52.358;4.926;2023-02-13T20:44:57;38.45;;;19.75;;
37349;SDS011;23231;52.358;4.926;2023-02-13T20:49:57;37.88;;;18.65;;
37349;SDS011;23231;52.358;4.926;2023-02-13T20:54:58;40.40;;;19.75;;
37349;SDS011;23231;52.358;4.926;2023-02-13T21:00:00;38.50;;;20.27;;
37349;SDS011;23231;52.358;4.926;2023-02-13T21:05:01;34.03;;;18.42;;
37349;SDS011;23231;52.358;4.926;2023-02-13T21:10:01;39.75;;;20.67;;
37349;SDS011;23231;52.358;4.926;2023-02-13T21:15:02;41.33;;;20.95;;
37349;SDS011;23231;52.358;4.926;2023-02-13T21:20:02;44.33;;;21.98;;
37349;SDS011;23231;52.358;4.926;2023-02-13T21:25:04;39.10;;;19.97;;
37349;SDS011;23231;52.358;4.926;2023-02-13T21:30:05;44.60;;;23.08;;
37349;SDS011;23231;52.358;4.926;2023-02-13T21:35:06;44.17;;;22.23;;
37349;SDS011;23231;52.358;4.926;2023-02-13T21:40:07;46.75;;;23.35;;
37349;SDS011;23231;52.358;4.926;2023-02-13T21:45:07;47.63;;;23.65;;
37349;SDS011;23231;52.358;4.926;2023-02-13T21:50:10;44.25;;;22.65;;
37349;SDS011;23231;52.358;4.926;2023-02-13T21:55:11;47.97;;;23.75;;
37349;SDS011;23231;52.358;4.926;2023-02-13T22:00:11;48.85;;;23.48;;
37349;SDS011;23231;52.358;4.926;2023-02-13T22:05:12;46.67;;;22.17;;
37349;SDS011;23231;52.358;4.926;2023-02-13T22:10:13;43.78;;;22.23;;
37349;SDS011;23231;52.358;4.926;2023-02-13T22:15:13;51.57;;;25.20;;
37349;SDS011;23231;52.358;4.926;2023-02-13T22:20:14;53.87;;;25.93;;
37349;SDS011;23231;52.358;4.926;2023-02-13T22:25:14;52.63;;;25.33;;
37349;SDS011;23231;52.358;4.926;2023-02-13T22:30:15;56.37;;;26.73;;
37349;SDS011;23231;52.358;4.926;2023-02-13T22:35:15;59.25;;;27.67;;
37349;SDS011;23231;52.358;4.926;2023-02-13T22:40:16;53.85;;;25.67;;
37349;SDS011;23231;52.358;4.926;2023-02-13T22:45:18;52.58;;;25.90;;
37349;SDS011;23231;52.358;4.926;2023-02-13T22:50:18;57.42;;;28.45;;
37349;SDS011;23231;52.358;4.926;2023-02-13T22:55:19;53.33;;;25.83;;
37349;SDS011;23231;52.358;4.926;2023-02-13T23:00:19;51.35;;;25.55;;
37349;SDS011;23231;52.358;4.926;2023-02-13T23:05:21;53.50;;;25.52;;
37349;SDS011;23231;52.358;4.926;2023-02-13T23:10:22;63.92;;;27.80;;
37349;SDS011;23231;52.358;4.926;2023-02-13T23:15:24;53.03;;;25.77;;
37349;SDS011;23231;52.358;4.926;2023-02-13T23:20:25;53.90;;;26.63;;
37349;SDS011;23231;52.358;4.926;2023-02-13T23:25:26;54.75;;;25.67;;
37349;SDS011;23231;52.358;4.926;2023-02-13T23:30:28;54.78;;;26.83;;
37349;SDS011;23231;52.358;4.926;2023-02-13T23:35:29;63.35;;;28.00;;
37349;SDS011;23231;52.358;4.926;2023-02-13T23:40:29;57.97;;;27.63;;
37349;SDS011;23231;52.358;4.926;2023-02-13T23:45:29;67.67;;;28.93;;
37349;SDS011;23231;52.358;4.926;2023-02-13T23:50:30;61.75;;;27.42;;
37349;SDS011;23231;52.358;4.926;2023-02-13T23:55:30;57.13;;;27.73;;
